createdAt,value
2018-08-03T03:10:23.869Z,22.90
2018-08-03T03:17:53.280Z,22.40
2018-08-03T03:20:23.721Z,22.77
2018-08-03T03:37:51.898Z,27.75
2018-08-03T03:40:22.435Z,24.45
2018-08-03T03:42:52.523Z,23.00
2018-08-03T03:45:22.912Z,22.30
2018-08-03T03:47:53.280Z,22.50
2018-08-03T03:50:23.672Z,23.60
2018-08-03T03:52:54.135Z,25.60
2018-08-03T03:55:24.246Z,20.77
2018-08-03T04:00:24.373Z,23.25
2018-08-03T04:02:54.850Z,25.88
2018-08-03T04:05:25.289Z,22.60
2018-08-03T04:07:55.867Z,22.05
2018-08-03T04:10:26.485Z,21.33
2018-08-03T04:12:56.998Z,25.17
2018-08-03T04:15:27.479Z,23.67
2018-08-03T04:17:57.949Z,24.27
2018-08-03T04:20:28.450Z,21.15
2018-08-03T04:22:58.939Z,20.15
2018-08-03T04:25:29.508Z,21.20
2018-08-03T04:27:59.610Z,21.80
2018-08-03T04:30:29.943Z,21.55
2018-08-03T04:35:29.975Z,21.90
2018-08-03T04:38:00.428Z,21.57
2018-08-03T04:43:00.444Z,22.35
2018-08-03T04:48:00.509Z,22.95
2018-08-03T04:50:31.007Z,24.12
2018-08-03T04:53:01.423Z,24.47
2018-08-03T04:55:31.839Z,31.00
2018-08-03T04:58:02.207Z,21.75
2018-08-03T05:00:32.619Z,20.80
2018-08-03T05:03:03.000Z,20.15
2018-08-03T05:05:33.580Z,21.20
2018-08-03T05:08:06.096Z,20.82
2018-08-03T05:10:39.993Z,24.47
2018-08-03T05:13:17.126Z,19.55
2018-08-03T05:15:54.747Z,21.23
2018-08-03T05:18:37.970Z,20.02
2018-08-03T05:21:22.030Z,20.10
2018-08-03T05:39:52.660Z,29.93
2018-08-03T05:42:22.807Z,20.43
2018-08-03T05:47:24.514Z,23.40
2018-08-03T06:12:24.755Z,23.30
2018-08-03T06:14:55.162Z,22.70
2018-08-03T06:37:22.502Z,26.75
2018-08-03T06:39:52.870Z,26.90
2018-08-03T06:42:23.385Z,26.93
2018-08-03T06:44:53.806Z,25.60
2018-08-03T06:49:56.017Z,26.50
2018-08-03T06:57:26.215Z,29.47
2018-08-03T06:59:56.658Z,28.10
2018-08-03T07:02:27.181Z,24.20
2018-08-03T07:04:57.574Z,25.20
2018-08-03T07:24:54.888Z,20.40
2018-08-03T07:27:25.018Z,22.50
2018-08-03T07:29:55.235Z,20.80
2018-08-03T07:32:25.940Z,20.53
2018-08-03T07:34:56.352Z,18.90
2018-08-03T07:37:26.781Z,18.43
2018-08-03T07:39:57.227Z,17.70
2018-08-03T07:42:27.669Z,19.20
2018-08-03T07:44:58.113Z,18.40
2018-08-03T07:49:59.280Z,18.15
2018-08-03T07:52:29.800Z,18.40
2018-08-03T07:55:00.210Z,19.37
2018-08-03T07:57:30.791Z,19.23
2018-08-03T08:00:01.275Z,19.70
2018-08-03T08:02:31.773Z,17.90
2018-08-03T08:05:12.090Z,18.70
2018-08-03T08:07:44.302Z,18.10
2018-08-03T08:10:20.482Z,18.27
2018-08-03T08:12:54.994Z,18.23
2018-08-03T08:15:31.708Z,21.10
2018-08-03T08:18:06.005Z,18.30
2018-08-03T08:20:43.647Z,17.53
2018-08-03T08:23:18.891Z,18.10
2018-08-03T08:25:51.788Z,21.90
2018-08-03T08:30:58.169Z,18.80
2018-08-03T08:33:36.505Z,17.97
2018-08-03T08:36:13.780Z,16.63
2018-08-03T08:38:55.682Z,17.70
2018-08-03T08:41:32.749Z,17.53
2018-08-03T08:44:05.360Z,19.33
2018-08-03T08:46:44.016Z,22.70
2018-08-03T08:49:23.802Z,18.50
2018-08-03T08:52:01.189Z,17.53
2018-08-03T08:54:32.685Z,17.90
2018-08-03T08:57:06.390Z,17.80
2018-08-03T08:59:37.104Z,17.13
2018-08-03T09:02:09.889Z,21.70
2018-08-03T09:04:47.551Z,18.10
2018-08-03T09:07:21.098Z,18.90
2018-08-03T09:09:54.426Z,16.33
2018-08-03T09:12:24.838Z,17.73
2018-08-03T09:14:55.263Z,17.03
2018-08-03T09:17:25.692Z,19.53
2018-08-03T09:22:46.968Z,18.53
2018-08-03T09:25:24.508Z,23.43
2018-08-03T09:28:00.428Z,19.10
2018-08-03T09:30:36.825Z,17.47
2018-08-03T09:36:15.724Z,18.77
2018-08-03T09:38:56.774Z,17.80
2018-08-03T09:41:30.332Z,18.23
2018-08-03T09:44:08.877Z,18.23
2018-08-03T09:46:40.027Z,17.93
2018-08-03T09:49:15.090Z,17.87
2018-08-03T09:51:50.077Z,23.03
2018-08-03T09:54:27.884Z,17.43
2018-08-03T09:57:02.184Z,17.57
2018-08-03T09:59:32.600Z,19.13
2018-08-03T10:11:24.607Z,15.93
2018-08-03T10:13:55.028Z,18.73
2018-08-03T10:16:25.563Z,15.27
2018-08-03T10:19:16.424Z,16.23
2018-08-03T10:21:47.860Z,15.80
2018-08-03T10:24:22.293Z,16.60
2018-08-03T10:27:02.579Z,16.83
2018-08-03T10:29:32.785Z,16.83
2018-08-03T10:32:06.587Z,16.73
2018-08-03T10:34:37.033Z,16.77
2018-08-03T10:37:07.691Z,15.67
2018-08-03T10:40:04.232Z,18.10
2018-08-03T10:42:46.277Z,18.33
2018-08-03T10:45:32.355Z,15.55
2018-08-03T10:48:22.554Z,17.53
2018-08-03T10:51:11.102Z,17.07
2018-08-03T10:56:45.571Z,19.60
2018-08-03T10:59:49.243Z,15.70
2018-08-03T11:02:43.409Z,15.73
2018-08-03T11:05:34.831Z,14.97
2018-08-03T11:08:14.589Z,17.60
2018-08-03T11:11:06.248Z,16.07
2018-08-03T11:13:56.916Z,14.45
2018-08-03T11:16:46.325Z,15.20
2018-08-03T11:19:43.196Z,14.57
2018-08-03T11:25:09.902Z,13.50
2018-08-03T11:27:48.935Z,15.43
2018-08-03T11:30:32.158Z,13.50
2018-08-03T11:33:13.484Z,15.83
2018-08-03T11:35:53.549Z,13.40
2018-08-03T11:38:35.487Z,13.90
2018-08-03T11:41:31.742Z,15.43
2018-08-03T11:47:14.072Z,15.47
2018-08-03T11:50:02.102Z,12.37
2018-08-03T11:52:34.297Z,12.90
2018-08-03T11:55:20.334Z,12.70
2018-08-03T11:57:56.612Z,13.20
2018-08-03T12:00:42.745Z,11.90
2018-08-03T12:03:36.363Z,16.77
2018-08-03T12:06:11.529Z,11.87
2018-08-03T12:08:42.165Z,15.17
2018-08-03T12:11:12.768Z,12.33
2018-08-03T12:13:55.031Z,14.10
2018-08-03T12:16:35.648Z,13.00
2018-08-03T12:19:18.333Z,12.23
2018-08-03T12:24:47.290Z,14.50
2018-08-03T12:27:35.064Z,11.67
2018-08-03T12:30:21.451Z,12.30
2018-08-03T12:35:50.089Z,12.33
2018-08-03T12:38:29.773Z,11.70
2018-08-03T12:41:03.736Z,13.53
2018-08-03T12:43:43.850Z,13.23
2018-08-03T12:46:19.011Z,15.37
2018-08-03T12:48:57.054Z,11.83
2018-08-03T12:51:40.207Z,12.10
2018-08-03T12:56:59.825Z,11.77
2018-08-03T12:59:44.798Z,13.20
2018-08-03T13:02:25.647Z,15.80
2018-08-03T13:05:12.015Z,10.73
2018-08-03T13:07:49.637Z,10.90
2018-08-03T13:10:32.766Z,11.57
2018-08-03T13:13:11.273Z,15.30
2018-08-03T13:15:57.962Z,12.10
2018-08-03T13:18:38.243Z,12.00
2018-08-03T13:21:35.948Z,15.10
2018-08-03T13:24:15.509Z,11.00
2018-08-03T13:26:58.831Z,10.77
2018-08-03T13:29:40.140Z,12.17
2018-08-03T13:32:16.857Z,10.67
2018-08-03T13:34:56.851Z,12.47
2018-08-03T13:37:36.393Z,12.13
2018-08-03T13:40:19.068Z,11.17
2018-08-03T13:42:57.192Z,10.73
2018-08-03T13:45:40.381Z,10.53
2018-08-03T13:48:19.337Z,11.97
2018-08-03T13:51:00.527Z,12.03
2018-08-03T13:53:35.859Z,11.90
2018-08-03T13:56:17.683Z,10.90
2018-08-03T13:59:04.337Z,15.50
2018-08-03T14:05:27.354Z,13.03
2018-08-03T14:07:58.794Z,11.13
2018-08-03T14:10:37.173Z,11.30
2018-08-03T14:13:19.872Z,11.67
2018-08-03T14:15:52.770Z,10.30
2018-08-03T14:18:30.254Z,10.73
2018-08-03T14:21:10.660Z,11.60
2018-08-03T14:23:45.824Z,10.30
2018-08-03T14:26:29.004Z,11.33
2018-08-03T14:29:05.624Z,11.53
2018-08-03T14:31:38.761Z,11.07
2018-08-03T14:34:14.952Z,14.60
2018-08-03T14:36:53.300Z,12.07
2018-08-03T14:39:34.493Z,12.27
2018-08-03T14:42:14.091Z,10.90
2018-08-03T14:44:55.648Z,11.90
2018-08-03T14:47:36.546Z,13.13
2018-08-03T14:50:26.668Z,11.03
2018-08-03T14:53:08.920Z,11.50
2018-08-03T14:58:52.957Z,12.17
2018-08-03T15:01:35.978Z,14.77
2018-08-03T15:04:21.050Z,15.03
2018-08-03T15:07:05.911Z,11.30
2018-08-03T15:09:53.166Z,11.17
2018-08-03T15:12:42.648Z,10.10
2018-08-03T15:15:40.906Z,13.60
2018-08-03T15:18:24.888Z,12.03
2018-08-03T15:21:16.172Z,11.53
2018-08-03T15:23:58.421Z,12.20
2018-08-03T15:26:38.988Z,10.97
2018-08-03T15:29:19.887Z,14.23
2018-08-03T15:32:01.427Z,11.23
2018-08-03T15:34:43.840Z,12.57
2018-08-03T15:37:25.137Z,11.47
2018-08-03T15:40:05.542Z,11.27
2018-08-03T15:46:06.651Z,13.03
2018-08-03T15:48:52.268Z,11.50
2018-08-03T15:51:35.090Z,11.57
2018-08-03T15:54:19.962Z,12.93
2018-08-03T15:56:50.697Z,10.90
2018-08-03T15:59:23.951Z,13.43
2018-08-03T16:01:54.523Z,11.50
2018-08-03T16:27:59.940Z,12.20
2018-08-03T16:33:48.255Z,11.50
2018-08-03T16:36:25.019Z,10.63
2018-08-03T16:39:02.119Z,10.77
2018-08-03T16:41:52.332Z,13.20
2018-08-03T16:44:38.105Z,10.83
